createdAt,value
2024-05-09T00:00:48.685Z,99641.88
2024-05-09T00:05:51.815Z,99760.97
2024-05-09T00:10:54.834Z,99517.16
2024-05-09T00:15:57.909Z,99601.63
2024-05-09T00:21:01.129Z,99556.34
2024-05-09T00:26:04.191Z,99539.06
2024-05-09T00:31:07.083Z,99591.66
2024-05-09T00:36:10.101Z,99576.22
2024-05-09T00:41:15.152Z,99617.28
2024-05-09T00:46:19.677Z,99776.84
2024-05-09T00:51:22.871Z,99674.88
2024-05-09T00:56:26.692Z,99582.66
2024-05-09T01:01:30.517Z,99594.06
2024-05-09T01:06:33.452Z,99623.44
2024-05-09T01:11:41.019Z,99669.31
2024-05-09T01:16:44.185Z,99668.78
2024-05-09T01:21:47.122Z,99781.16
2024-05-09T01:26:50.227Z,99566.13
2024-05-09T01:31:53.296Z,99541.91
2024-05-09T01:36:56.269Z,99705.03
2024-05-09T01:41:59.155Z,99761.19
2024-05-09T01:47:02.179Z,99715.09
2024-05-09T01:52:05.455Z,99575.59
2024-05-09T01:57:08.562Z,99785.56
2024-05-09T02:02:12.835Z,99658.50
2024-05-09T02:07:16.245Z,99552.91
2024-05-09T02:12:19.289Z,99557.22
2024-05-09T02:17:22.875Z,99660.06
2024-05-09T02:22:26.202Z,99698.47
2024-05-09T02:27:29.413Z,99800.63
2024-05-09T02:32:32.702Z,99631.88
2024-05-09T02:37:35.908Z,99578.97
2024-05-09T02:42:39.015Z,99633.53
2024-05-09T02:47:42.210Z,99661.19
2024-05-09T02:52:45.497Z,99682.59
2024-05-09T02:57:48.710Z,99667.91
2024-05-09T03:02:51.965Z,99675.75
2024-05-09T03:07:55.219Z,99695.94
2024-05-09T03:12:58.154Z,99738.72
2024-05-09T03:18:01.815Z,99641.97
2024-05-09T03:23:08.079Z,99655.47
2024-05-09T03:28:12.489Z,99646.94
2024-05-09T03:33:20.194Z,99604.09
2024-05-09T03:38:23.810Z,99631.81
2024-05-09T03:43:26.767Z,99656.53
2024-05-09T03:48:29.826Z,99648.00
2024-05-09T03:53:32.952Z,99719.75
2024-05-09T03:58:37.773Z,99676.97
2024-05-09T04:03:41.039Z,99748.09
2024-05-09T04:08:44.335Z,99597.38
2024-05-09T04:13:47.559Z,99660.75
2024-05-09T04:18:50.811Z,99730.56
2024-05-09T04:23:54.139Z,99760.94
2024-05-09T04:28:57.160Z,99605.25
2024-05-09T04:34:00.282Z,99744.34
2024-05-09T04:39:03.469Z,99863.09
2024-05-09T04:44:06.653Z,99826.75
2024-05-09T04:49:10.007Z,99951.78
2024-05-09T04:54:25.728Z,99842.72
2024-05-09T04:59:33.691Z,99868.47
2024-05-09T05:04:36.907Z,99902.00
2024-05-09T05:09:39.837Z,99860.00
2024-05-09T05:14:42.724Z,99959.50
2024-05-09T05:19:48.059Z,100000.75
2024-05-09T05:24:51.031Z,99842.06
2024-05-09T05:29:53.905Z,100040.34
2024-05-09T05:34:57.028Z,99718.25
2024-05-09T05:39:59.937Z,99815.88
2024-05-09T05:45:05.118Z,99946.94
2024-05-09T05:50:20.498Z,99883.72
2024-05-09T05:55:30.373Z,99806.38
2024-05-09T06:00:38.475Z,99836.53
2024-05-09T06:05:44.155Z,99863.06
2024-05-09T06:10:47.798Z,99861.91
2024-05-09T06:15:51.061Z,99798.69
2024-05-09T06:20:54.012Z,99769.78
2024-05-09T06:25:57.174Z,99947.56
2024-05-09T06:31:03.494Z,99699.13
2024-05-09T06:36:07.310Z,99588.56
2024-05-09T06:41:10.492Z,99667.84
2024-05-09T06:46:13.447Z,99750.31
2024-05-09T06:51:16.755Z,99821.84
2024-05-09T06:56:19.777Z,99828.72
2024-05-09T07:01:23.054Z,99751.97
2024-05-09T07:06:26.296Z,99796.22
2024-05-09T07:11:31.662Z,99713.41
2024-05-09T07:16:34.894Z,99798.78
2024-05-09T07:21:37.778Z,99791.38
2024-05-09T07:26:40.833Z,99787.25
2024-05-09T07:31:44.050Z,99856.22
2024-05-09T07:36:47.364Z,99789.16
2024-05-09T07:41:50.514Z,99643.97
2024-05-09T07:48:13.724Z,99746.41
2024-05-09T07:53:29.938Z,99799.25
2024-05-09T07:57:39.763Z,99681.94
2024-05-09T08:02:42.960Z,99875.50
2024-05-09T08:07:47.322Z,99684.84
2024-05-09T08:12:50.248Z,99747.78
2024-05-09T08:17:53.251Z,99773.69
2024-05-09T08:22:56.447Z,99838.81
2024-05-09T08:27:59.644Z,99908.03
2024-05-09T08:33:06.097Z,99811.44
2024-05-09T08:38:10.843Z,99827.28
2024-05-09T08:43:15.569Z,99844.72
2024-05-09T08:48:20.859Z,99920.19
2024-05-09T08:53:23.952Z,99886.22
2024-05-09T08:58:28.087Z,99594.13
2024-05-09T09:03:34.547Z,99827.44
2024-05-09T09:08:40.392Z,99713.81
2024-05-09T09:13:43.382Z,99867.38
2024-05-09T09:18:47.083Z,99669.72
2024-05-09T09:23:50.143Z,99830.06
2024-05-09T09:28:53.173Z,99750.09
2024-05-09T09:33:56.317Z,99613.09
2024-05-09T09:38:59.699Z,99683.81
2024-05-09T09:44:04.986Z,99820.75
2024-05-09T09:49:08.821Z,99738.56
2024-05-09T09:54:13.252Z,99763.22
2024-05-09T09:59:17.471Z,99797.59
2024-05-09T10:04:20.836Z,99714.97
2024-05-09T10:09:24.526Z,99776.56
2024-05-09T10:14:30.943Z,99758.59
2024-05-09T10:19:35.317Z,99751.38
2024-05-09T10:25:08.442Z,99805.69
2024-05-09T10:30:14.819Z,99803.34
2024-05-09T10:35:26.685Z,99740.53
2024-05-09T10:40:31.735Z,99829.88
2024-05-09T10:45:36.564Z,99785.75
2024-05-09T10:50:43.960Z,99748.72
2024-05-09T10:55:58.055Z,99821.06
2024-05-09T11:01:05.428Z,99786.06
2024-05-09T11:06:11.591Z,99795.97
2024-05-09T11:11:15.104Z,99802.34
2024-05-09T11:16:21.140Z,99752.84
2024-05-09T11:21:25.004Z,99724.63
2024-05-09T11:26:29.608Z,99729.69
2024-05-09T11:31:32.949Z,99716.88
2024-05-09T11:36:36.275Z,99795.66
2024-05-09T11:41:39.758Z,99768.16
2024-05-09T11:46:44.611Z,99625.44
2024-05-09T11:51:47.678Z,99762.06
2024-05-09T11:56:51.762Z,99757.38
2024-05-09T12:01:54.824Z,99765.97
2024-05-09T12:06:57.889Z,99809.53
2024-05-09T12:12:00.865Z,99728.94
2024-05-09T12:17:05.844Z,99622.84
2024-05-09T12:22:08.912Z,99602.88
2024-05-09T12:27:11.939Z,99843.00
2024-05-09T12:32:15.059Z,99644.53
2024-05-09T12:37:19.188Z,99721.72
2024-05-09T12:42:27.346Z,99754.06
2024-05-09T12:47:31.629Z,99748.22
2024-05-09T12:52:34.651Z,99777.19
2024-05-09T12:57:37.752Z,99796.09
2024-05-09T13:02:40.852Z,99694.91
2024-05-09T13:07:44.013Z,99830.63
2024-05-09T13:12:46.935Z,99658.38
2024-05-09T13:17:49.942Z,99595.63
2024-05-09T13:22:53.168Z,99592.88
2024-05-09T13:27:57.386Z,99681.56
2024-05-09T13:33:00.522Z,99723.78
2024-05-09T13:38:04.884Z,99767.84
2024-05-09T13:43:08.235Z,99587.00
2024-05-09T13:48:11.482Z,99810.25
2024-05-09T13:53:14.542Z,99747.56
2024-05-09T13:58:18.014Z,99599.19
2024-05-09T14:03:21.531Z,99701.56
2024-05-09T14:08:24.700Z,99546.41
2024-05-09T14:13:27.836Z,99568.34
2024-05-09T14:18:31.134Z,99575.88
2024-05-09T14:23:34.198Z,99690.38
2024-05-09T14:28:37.168Z,99599.19
2024-05-09T14:33:40.189Z,99606.34
2024-05-09T14:38:43.485Z,99519.63
2024-05-09T14:43:46.411Z,99478.72
2024-05-09T14:48:50.028Z,99497.97
2024-05-09T14:53:53.524Z,99620.25
2024-05-09T14:58:57.256Z,99635.16
2024-05-09T15:04:00.301Z,99651.53
2024-05-09T15:09:06.539Z,99629.06
2024-05-09T15:14:09.467Z,99633.78
2024-05-09T15:19:12.885Z,99502.91
2024-05-09T15:24:16.193Z,99630.09
2024-05-09T15:29:19.248Z,99490.66
2024-05-09T15:34:22.454Z,99471.69
2024-05-09T15:39:25.739Z,99425.31
2024-05-09T15:44:29.032Z,99475.63
2024-05-09T15:49:32.082Z,99469.88
2024-05-09T15:54:35.198Z,99612.91
2024-05-09T15:59:38.689Z,99633.78
2024-05-09T16:04:41.634Z,99513.44
2024-05-09T16:09:44.836Z,99395.03
2024-05-09T16:14:47.724Z,99535.84
2024-05-09T16:19:50.656Z,99393.03
2024-05-09T16:24:53.802Z,99595.91
2024-05-09T16:30:03.966Z,99629.97
2024-05-09T16:35:08.422Z,99513.81
2024-05-09T16:40:22.029Z,99483.28
2024-05-09T16:45:33.632Z,99351.22
2024-05-09T16:50:37.354Z,99557.28
2024-05-09T16:55:40.386Z,99551.78
2024-05-09T17:00:44.297Z,99377.56
2024-05-09T17:05:48.436Z,99486.41
2024-05-09T17:10:51.690Z,99523.78
2024-05-09T17:15:54.826Z,99429.94
2024-05-09T17:20:57.730Z,99452.94
2024-05-09T17:26:00.984Z,99481.44
2024-05-09T17:31:03.968Z,99474.41
2024-05-09T17:36:07.358Z,99386.31
2024-05-09T17:41:10.402Z,99331.25
2024-05-09T17:46:13.652Z,99436.22
2024-05-09T17:51:16.614Z,99388.69
2024-05-09T17:56:19.610Z,99357.69
2024-05-09T18:01:23.824Z,99406.47
2024-05-09T18:06:26.999Z,99375.66
2024-05-09T18:11:30.265Z,99395.31
2024-05-09T18:16:33.584Z,99277.84
2024-05-09T18:21:36.692Z,99319.81
2024-05-09T18:26:39.841Z,99380.63
2024-05-09T18:31:42.961Z,99375.50
2024-05-09T18:36:46.660Z,99298.81
2024-05-09T18:41:49.564Z,99306.56
2024-05-09T18:46:52.524Z,99225.09
2024-05-09T18:51:55.433Z,99441.28
2024-05-09T18:56:58.398Z,99391.06
2024-05-09T19:02:01.504Z,99287.88
2024-05-09T19:07:04.608Z,99287.34
2024-05-09T19:12:08.047Z,99323.44
2024-05-09T19:17:11.230Z,99295.00
2024-05-09T19:22:14.231Z,99332.84
2024-05-09T19:27:17.253Z,99242.84
2024-05-09T19:32:20.334Z,99282.44
2024-05-09T19:37:23.666Z,99371.63
2024-05-09T19:42:27.567Z,99309.94
2024-05-09T19:47:30.626Z,99306.38
2024-05-09T19:52:33.640Z,99235.59
2024-05-09T19:57:36.615Z,99358.69
2024-05-09T20:02:39.865Z,99291.66
2024-05-09T20:07:43.280Z,99235.13
2024-05-09T20:12:46.287Z,99318.25
2024-05-09T20:17:49.421Z,99212.34
2024-05-09T20:22:52.531Z,99182.25
2024-05-09T20:27:55.515Z,99330.03
2024-05-09T20:32:58.729Z,99290.91
2024-05-09T20:38:03.080Z,99193.69
2024-05-09T20:43:09.673Z,99322.94
2024-05-09T20:48:13.322Z,99425.63
2024-05-09T20:53:16.297Z,99448.19
2024-05-09T20:58:19.284Z,99175.16
2024-05-09T21:03:22.317Z,99233.72
2024-05-09T21:08:27.016Z,99184.66
2024-05-09T21:13:30.105Z,99242.44
2024-05-09T21:18:33.351Z,99219.88
2024-05-09T21:23:38.107Z,99295.06
2024-05-09T21:28:41.076Z,99173.22
2024-05-09T21:33:44.326Z,99184.66
2024-05-09T21:38:47.345Z,99256.69
2024-05-09T21:43:50.278Z,99176.78
2024-05-09T21:48:53.733Z,99362.28
2024-05-09T21:53:58.967Z,99297.00
2024-05-09T21:59:01.894Z,99291.47
2024-05-09T22:04:05.031Z,99288.28
2024-05-09T22:09:08.016Z,99197.94
2024-05-09T22:14:10.992Z,99323.25
2024-05-09T22:19:14.167Z,99290.38
2024-05-09T22:24:17.134Z,99391.91
2024-05-09T22:29:20.059Z,99401.03
2024-05-09T22:34:23.429Z,99316.72
2024-05-09T22:39:26.675Z,99198.94
2024-05-09T22:44:29.902Z,99269.03
2024-05-09T22:49:32.850Z,99234.50
2024-05-09T22:54:36.039Z,99354.94
2024-05-09T22:59:39.141Z,99319.84
2024-05-09T23:04:42.106Z,99154.34
2024-05-09T23:09:48.432Z,99363.41
2024-05-09T23:14:51.641Z,99240.00
2024-05-09T23:19:54.762Z,99175.91
2024-05-09T23:24:57.999Z,99265.34
2024-05-09T23:30:01.138Z,99189.53
2024-05-09T23:35:04.240Z,99301.47
2024-05-09T23:40:09.695Z,99106.16
2024-05-09T23:45:13.032Z,99341.41
2024-05-09T23:50:20.705Z,99116.00
2024-05-09T23:55:31.314Z,99136.91
